sensor_id;sensor_type;location;lat;lon;timestamp;P1;durP1;ratioP1;P2;durP2;ratioP2
2850;SDS011;1433;49.976;8.342;2023-11-21T00:00:13;3.17;;;2.53;;
2850;SDS011;1433;49.976;8.342;2023-11-21T00:02:41;2.60;;;1.70;;
2850;SDS011;1433;49.976;8.342;2023-11-21T00:05:08;5.90;;;2.37;;
2850;SDS011;1433;49.976;8.342;2023-11-21T00:07:36;3.20;;;2.37;;
2850;SDS011;1433;49.976;8.342;2023-11-21T00:10:03;5.03;;;2.30;;
2850;SDS011;1433;49.976;8.342;2023-11-21T00:12:31;3.40;;;2.50;;
2850;SDS011;1433;49.976;8.342;2023-11-21T00:14:59;3.03;;;2.60;;
2850;SDS011;1433;49.976;8.342;2023-11-21T00:17:25;4.13;;;2.70;;
2850;SDS011;1433;49.976;8.342;2023-11-21T00:19:51;3.10;;;2.43;;
2850;SDS011;1433;49.976;8.342;2023-11-21T00:22:18;2.10;;;1.90;;
2850;SDS011;1433;49.976;8.342;2023-11-21T00:24:44;2.43;;;2.23;;
2850;SDS011;1433;49.976;8.342;2023-11-21T00:27:10;5.90;;;2.20;;
2850;SDS011;1433;49.976;8.342;2023-11-21T00:29:36;4.17;;;2.20;;
2850;SDS011;1433;49.976;8.342;2023-11-21T00:32:04;2.97;;;2.50;;
2850;SDS011;1433;49.976;8.342;2023-11-21T00:34:31;3.87;;;2.67;;
2850;SDS011;1433;49.976;8.342;2023-11-21T00:36:58;3.77;;;2.03;;
2850;SDS011;1433;49.976;8.342;2023-11-21T00:39:25;3.27;;;2.03;;
2850;SDS011;1433;49.976;8.342;2023-11-21T00:41:52;4.60;;;2.20;;
2850;SDS011;1433;49.976;8.342;2023-11-21T00:44:18;3.20;;;2.53;;
2850;SDS011;1433;49.976;8.342;2023-11-21T00:46:45;2.80;;;2.50;;
2850;SDS011;1433;49.976;8.342;2023-11-21T00:49:11;7.87;;;2.43;;
2850;SDS011;1433;49.976;8.342;2023-11-21T00:51:37;2.10;;;1.90;;
2850;SDS011;1433;49.976;8.342;2023-11-21T00:54:05;2.60;;;2.40;;
2850;SDS011;1433;49.976;8.342;2023-11-21T00:56:32;3.83;;;2.53;;
2850;SDS011;1433;49.976;8.342;2023-11-21T00:58:59;4.53;;;2.70;;
2850;SDS011;1433;49.976;8.342;2023-11-21T01:01:25;3.23;;;2.37;;
2850;SDS011;1433;49.976;8.342;2023-11-21T01:03:52;5.43;;;2.47;;
2850;SDS011;1433;49.976;8.342;2023-11-21T01:06:18;4.70;;;2.20;;
2850;SDS011;1433;49.976;8.342;2023-11-21T01:08:45;3.77;;;1.63;;
2850;SDS011;1433;49.976;8.342;2023-11-21T01:11:11;2.50;;;1.90;;
2850;SDS011;1433;49.976;8.342;2023-11-21T01:13:41;2.47;;;2.27;;
2850;SDS011;1433;49.976;8.342;2023-11-21T01:16:08;2.70;;;1.73;;
2850;SDS011;1433;49.976;8.342;2023-11-21T01:18:35;3.60;;;2.27;;
2850;SDS011;1433;49.976;8.342;2023-11-21T01:21:01;2.13;;;1.93;;
2850;SDS011;1433;49.976;8.342;2023-11-21T01:23:28;2.13;;;2.00;;
2850;SDS011;1433;49.976;8.342;2023-11-21T01:25:55;3.80;;;2.17;;
2850;SDS011;1433;49.976;8.342;2023-11-21T01:28:22;2.40;;;2.20;;
2850;SDS011;1433;49.976;8.342;2023-11-21T01:30:48;2.57;;;2.03;;
2850;SDS011;1433;49.976;8.342;2023-11-21T01:33:15;6.00;;;2.20;;
2850;SDS011;1433;49.976;8.342;2023-11-21T01:35:41;5.07;;;2.20;;
2850;SDS011;1433;49.976;8.342;2023-11-21T01:38:08;2.13;;;1.80;;
2850;SDS011;1433;49.976;8.342;2023-11-21T01:40:34;3.23;;;2.07;;
2850;SDS011;1433;49.976;8.342;2023-11-21T01:43:01;3.60;;;2.40;;
2850;SDS011;1433;49.976;8.342;2023-11-21T01:45:30;2.87;;;2.13;;
2850;SDS011;1433;49.976;8.342;2023-11-21T01:47:59;2.60;;;2.40;;
2850;SDS011;1433;49.976;8.342;2023-11-21T01:50:28;3.30;;;2.20;;
2850;SDS011;1433;49.976;8.342;2023-11-21T01:52:55;3.27;;;2.20;;
2850;SDS011;1433;49.976;8.342;2023-11-21T01:55:23;3.20;;;2.40;;
2850;SDS011;1433;49.976;8.342;2023-11-21T01:57:49;2.47;;;2.27;;
2850;SDS011;1433;49.976;8.342;2023-11-21T02:00:16;2.27;;;2.10;;
2850;SDS011;1433;49.976;8.342;2023-11-21T02:02:43;3.00;;;2.57;;
2850;SDS011;1433;49.976;8.342;2023-11-21T02:05:13;2.87;;;2.47;;
2850;SDS011;1433;49.976;8.342;2023-11-21T02:07:41;2.17;;;1.60;;
2850;SDS011;1433;49.976;8.342;2023-11-21T02:10:08;2.23;;;2.03;;
2850;SDS011;1433;49.976;8.342;2023-11-21T02:12:36;3.00;;;2.10;;
2850;SDS011;1433;49.976;8.342;2023-11-21T02:15:02;2.10;;;1.90;;
2850;SDS011;1433;49.976;8.342;2023-11-21T02:17:33;2.33;;;2.00;;
2850;SDS011;1433;49.976;8.342;2023-11-21T02:19:59;2.23;;;1.70;;
2850;SDS011;1433;49.976;8.342;2023-11-21T02:22:28;1.60;;;1.47;;
2850;SDS011;1433;49.976;8.342;2023-11-21T02:24:56;5.10;;;2.57;;
2850;SDS011;1433;49.976;8.342;2023-11-21T02:27:23;5.10;;;2.53;;
2850;SDS011;1433;49.976;8.342;2023-11-21T02:29:50;3.63;;;2.10;;
2850;SDS011;1433;49.976;8.342;2023-11-21T02:32:16;3.80;;;2.30;;
2850;SDS011;1433;49.976;8.342;2023-11-21T02:34:44;2.40;;;1.80;;
2850;SDS011;1433;49.976;8.342;2023-11-21T02:37:11;7.30;;;2.30;;
2850;SDS011;1433;49.976;8.342;2023-11-21T02:39:38;3.53;;;2.60;;
2850;SDS011;1433;49.976;8.342;2023-11-21T02:42:04;3.47;;;2.30;;
2850;SDS011;1433;49.976;8.342;2023-11-21T02:44:30;4.00;;;2.13;;
2850;SDS011;1433;49.976;8.342;2023-11-21T02:46:56;3.60;;;3.37;;
2850;SDS011;1433;49.976;8.342;2023-11-21T02:49:23;4.20;;;2.93;;
2850;SDS011;1433;49.976;8.342;2023-11-21T02:51:49;3.33;;;3.13;;
2850;SDS011;1433;49.976;8.342;2023-11-21T02:54:15;3.13;;;2.83;;
2850;SDS011;1433;49.976;8.342;2023-11-21T02:56:42;2.53;;;2.33;;
2850;SDS011;1433;49.976;8.342;2023-11-21T02:59:09;3.13;;;2.87;;
2850;SDS011;1433;49.976;8.342;2023-11-21T03:01:35;3.27;;;2.97;;
2850;SDS011;1433;49.976;8.342;2023-11-21T03:04:01;4.50;;;2.60;;
2850;SDS011;1433;49.976;8.342;2023-11-21T03:06:28;2.57;;;2.13;;
2850;SDS011;1433;49.976;8.342;2023-11-21T03:08:54;5.20;;;2.53;;
2850;SDS011;1433;49.976;8.342;2023-11-21T03:11:20;4.97;;;3.03;;
2850;SDS011;1433;49.976;8.342;2023-11-21T03:13:46;4.43;;;3.50;;
2850;SDS011;1433;49.976;8.342;2023-11-21T03:16:12;6.33;;;2.87;;
2850;SDS011;1433;49.976;8.342;2023-11-21T03:18:39;5.50;;;3.40;;
2850;SDS011;1433;49.976;8.342;2023-11-21T03:21:05;3.80;;;2.83;;
2850;SDS011;1433;49.976;8.342;2023-11-21T03:23:34;3.73;;;3.43;;
2850;SDS011;1433;49.976;8.342;2023-11-21T03:26:02;4.53;;;3.30;;
2850;SDS011;1433;49.976;8.342;2023-11-21T03:28:29;5.13;;;3.80;;
2850;SDS011;1433;49.976;8.342;2023-11-21T03:30:56;5.07;;;3.50;;
2850;SDS011;1433;49.976;8.342;2023-11-21T03:33:23;4.10;;;3.70;;
2850;SDS011;1433;49.976;8.342;2023-11-21T03:35:50;4.93;;;3.33;;
2850;SDS011;1433;49.976;8.342;2023-11-21T03:38:18;4.30;;;3.53;;
2850;SDS011;1433;49.976;8.342;2023-11-21T03:40:45;6.17;;;4.23;;
2850;SDS011;1433;49.976;8.342;2023-11-21T03:43:11;4.73;;;3.57;;
2850;SDS011;1433;49.976;8.342;2023-11-21T03:45:38;6.67;;;3.70;;
2850;SDS011;1433;49.976;8.342;2023-11-21T03:48:06;5.90;;;4.37;;
2850;SDS011;1433;49.976;8.342;2023-11-21T03:50:33;8.80;;;3.50;;
2850;SDS011;1433;49.976;8.342;2023-11-21T03:52:59;4.97;;;3.93;;
2850;SDS011;1433;49.976;8.342;2023-11-21T03:55:25;5.87;;;4.03;;
2850;SDS011;1433;49.976;8.342;2023-11-21T03:57:52;4.23;;;3.90;;
2850;SDS011;1433;49.976;8.342;2023-11-21T04:00:19;4.53;;;3.63;;
2850;SDS011;1433;49.976;8.342;2023-11-21T04:02:48;5.30;;;4.63;;
2850;SDS011;1433;49.976;8.342;2023-11-21T04:05:14;4.27;;;3.90;;
2850;SDS011;1433;49.976;8.342;2023-11-21T04:07:40;5.63;;;5.07;;
2850;SDS011;1433;49.976;8.342;2023-11-21T04:10:07;3.37;;;3.07;;
2850;SDS011;1433;49.976;8.342;2023-11-21T04:12:38;3.70;;;3.40;;
2850;SDS011;1433;49.976;8.342;2023-11-21T04:15:05;3.53;;;3.23;;
2850;SDS011;1433;49.976;8.342;2023-11-21T04:17:32;3.90;;;3.50;;
2850;SDS011;1433;49.976;8.342;2023-11-21T04:19:58;3.20;;;3.00;;
2850;SDS011;1433;49.976;8.342;2023-11-21T04:22:24;3.40;;;3.10;;
2850;SDS011;1433;49.976;8.342;2023-11-21T04:24:50;5.33;;;3.97;;
2850;SDS011;1433;49.976;8.342;2023-11-21T04:27:16;7.17;;;4.23;;
2850;SDS011;1433;49.976;8.342;2023-11-21T04:29:44;3.73;;;3.43;;
2850;SDS011;1433;49.976;8.342;2023-11-21T04:32:10;4.07;;;3.67;;
2850;SDS011;1433;49.976;8.342;2023-11-21T04:34:36;5.00;;;4.37;;
2850;SDS011;1433;49.976;8.342;2023-11-21T04:37:03;4.37;;;3.70;;
2850;SDS011;1433;49.976;8.342;2023-11-21T04:39:31;5.13;;;4.63;;
2850;SDS011;1433;49.976;8.342;2023-11-21T04:41:57;6.00;;;4.60;;
2850;SDS011;1433;49.976;8.342;2023-11-21T04:44:24;5.30;;;3.43;;
2850;SDS011;1433;49.976;8.342;2023-11-21T04:46:50;4.70;;;4.03;;
2850;SDS011;1433;49.976;8.342;2023-11-21T04:49:16;6.00;;;4.70;;
2850;SDS011;1433;49.976;8.342;2023-11-21T04:51:42;3.57;;;3.27;;
2850;SDS011;1433;49.976;8.342;2023-11-21T04:54:08;5.33;;;4.83;;
2850;SDS011;1433;49.976;8.342;2023-11-21T04:56:35;3.93;;;3.53;;
2850;SDS011;1433;49.976;8.342;2023-11-21T04:59:01;4.87;;;4.37;;
2850;SDS011;1433;49.976;8.342;2023-11-21T05:01:27;4.47;;;4.07;;
2850;SDS011;1433;49.976;8.342;2023-11-21T05:03:53;4.37;;;3.97;;
2850;SDS011;1433;49.976;8.342;2023-11-21T05:06:20;5.80;;;4.10;;
2850;SDS011;1433;49.976;8.342;2023-11-21T05:08:46;3.70;;;3.30;;
2850;SDS011;1433;49.976;8.342;2023-11-21T05:11:22;4.07;;;3.77;;
2850;SDS011;1433;49.976;8.342;2023-11-21T05:13:52;7.93;;;4.40;;
2850;SDS011;1433;49.976;8.342;2023-11-21T05:16:21;5.30;;;3.90;;
2850;SDS011;1433;49.976;8.342;2023-11-21T05:18:48;5.03;;;4.53;;
2850;SDS011;1433;49.976;8.342;2023-11-21T05:21:16;6.67;;;4.93;;
2850;SDS011;1433;49.976;8.342;2023-11-21T05:23:42;5.67;;;4.07;;
2850;SDS011;1433;49.976;8.342;2023-11-21T05:26:08;4.13;;;3.77;;
2850;SDS011;1433;49.976;8.342;2023-11-21T05:28:34;4.13;;;3.57;;
2850;SDS011;1433;49.976;8.342;2023-11-21T05:31:00;5.67;;;5.07;;
2850;SDS011;1433;49.976;8.342;2023-11-21T05:33:27;4.63;;;4.10;;
2850;SDS011;1433;49.976;8.342;2023-11-21T05:35:53;7.43;;;4.33;;
2850;SDS011;1433;49.976;8.342;2023-11-21T05:38:19;9.13;;;4.43;;
2850;SDS011;1433;49.976;8.342;2023-11-21T05:40:47;6.60;;;3.50;;
2850;SDS011;1433;49.976;8.342;2023-11-21T05:43:13;4.53;;;3.67;;
2850;SDS011;1433;49.976;8.342;2023-11-21T05:45:41;6.63;;;4.50;;
2850;SDS011;1433;49.976;8.342;2023-11-21T05:48:07;3.73;;;3.20;;
2850;SDS011;1433;49.976;8.342;2023-11-21T05:50:33;4.00;;;3.40;;
2850;SDS011;1433;49.976;8.342;2023-11-21T05:52:59;4.23;;;3.90;;
2850;SDS011;1433;49.976;8.342;2023-11-21T05:55:26;3.90;;;3.37;;
2850;SDS011;1433;49.976;8.342;2023-11-21T05:57:53;3.27;;;2.97;;
2850;SDS011;1433;49.976;8.342;2023-11-21T06:00:19;3.87;;;3.57;;
2850;SDS011;1433;49.976;8.342;2023-11-21T06:02:46;4.20;;;3.80;;
2850;SDS011;1433;49.976;8.342;2023-11-21T06:05:13;3.87;;;3.50;;
2850;SDS011;1433;49.976;8.342;2023-11-21T06:07:39;4.23;;;3.00;;
2850;SDS011;1433;49.976;8.342;2023-11-21T06:10:06;4.63;;;2.83;;
2850;SDS011;1433;49.976;8.342;2023-11-21T06:12:37;2.83;;;2.67;;
2850;SDS011;1433;49.976;8.342;2023-11-21T06:15:04;3.97;;;2.53;;
2850;SDS011;1433;49.976;8.342;2023-11-21T06:17:31;2.93;;;2.63;;
2850;SDS011;1433;49.976;8.342;2023-11-21T06:19:57;3.50;;;3.20;;
2850;SDS011;1433;49.976;8.342;2023-11-21T06:22:23;5.67;;;3.50;;
2850;SDS011;1433;49.976;8.342;2023-11-21T06:24:49;3.07;;;2.77;;
2850;SDS011;1433;49.976;8.342;2023-11-21T06:27:15;3.43;;;3.13;;
2850;SDS011;1433;49.976;8.342;2023-11-21T06:29:41;5.00;;;3.30;;
2850;SDS011;1433;49.976;8.342;2023-11-21T06:32:08;6.20;;;3.37;;
2850;SDS011;1433;49.976;8.342;2023-11-21T06:34:34;3.23;;;2.93;;
2850;SDS011;1433;49.976;8.342;2023-11-21T06:37:00;5.40;;;4.10;;
2850;SDS011;1433;49.976;8.342;2023-11-21T06:39:26;7.03;;;5.30;;
2850;SDS011;1433;49.976;8.342;2023-11-21T06:41:53;4.90;;;4.30;;
2850;SDS011;1433;49.976;8.342;2023-11-21T06:44:20;4.07;;;3.23;;
2850;SDS011;1433;49.976;8.342;2023-11-21T06:46:46;6.63;;;6.03;;
2850;SDS011;1433;49.976;8.342;2023-11-21T06:49:14;3.93;;;3.63;;
2850;SDS011;1433;49.976;8.342;2023-11-21T06:51:40;4.10;;;3.70;;
2850;SDS011;1433;49.976;8.342;2023-11-21T06:54:06;5.50;;;4.07;;
2850;SDS011;1433;49.976;8.342;2023-11-21T06:56:32;3.53;;;3.20;;
2850;SDS011;1433;49.976;8.342;2023-11-21T06:58:59;5.60;;;4.30;;
2850;SDS011;1433;49.976;8.342;2023-11-21T07:01:25;5.03;;;4.00;;
2850;SDS011;1433;49.976;8.342;2023-11-21T07:03:52;5.87;;;3.70;;
2850;SDS011;1433;49.976;8.342;2023-11-21T07:06:18;4.97;;;3.77;;
2850;SDS011;1433;49.976;8.342;2023-11-21T07:08:44;8.47;;;4.73;;
2850;SDS011;1433;49.976;8.342;2023-11-21T07:11:10;4.50;;;3.97;;
2850;SDS011;1433;49.976;8.342;2023-11-21T07:13:36;7.00;;;4.27;;
2850;SDS011;1433;49.976;8.342;2023-11-21T07:16:02;8.33;;;6.70;;
2850;SDS011;1433;49.976;8.342;2023-11-21T07:18:30;6.93;;;6.23;;
2850;SDS011;1433;49.976;8.342;2023-11-21T07:20:56;8.67;;;5.20;;
2850;SDS011;1433;49.976;8.342;2023-11-21T07:23:24;4.40;;;4.00;;
2850;SDS011;1433;49.976;8.342;2023-11-21T07:25:50;4.53;;;4.13;;
2850;SDS011;1433;49.976;8.342;2023-11-21T07:28:16;5.37;;;4.00;;
2850;SDS011;1433;49.976;8.342;2023-11-21T07:30:43;4.77;;;4.30;;
2850;SDS011;1433;49.976;8.342;2023-11-21T07:33:09;6.47;;;4.50;;
2850;SDS011;1433;49.976;8.342;2023-11-21T07:35:38;4.20;;;3.80;;
2850;SDS011;1433;49.976;8.342;2023-11-21T07:38:04;6.43;;;4.63;;
2850;SDS011;1433;49.976;8.342;2023-11-21T07:40:30;7.13;;;5.10;;
2850;SDS011;1433;49.976;8.342;2023-11-21T07:42:57;10.27;;;4.80;;
2850;SDS011;1433;49.976;8.342;2023-11-21T07:45:23;4.20;;;3.83;;
2850;SDS011;1433;49.976;8.342;2023-11-21T07:47:49;7.63;;;4.57;;
2850;SDS011;1433;49.976;8.342;2023-11-21T07:50:15;5.10;;;4.20;;
2850;SDS011;1433;49.976;8.342;2023-11-21T07:52:42;8.37;;;4.23;;
2850;SDS011;1433;49.976;8.342;2023-11-21T07:55:08;6.67;;;4.53;;
2850;SDS011;1433;49.976;8.342;2023-11-21T07:57:34;4.47;;;4.00;;
2850;SDS011;1433;49.976;8.342;2023-11-21T08:00:00;4.33;;;3.77;;
2850;SDS011;1433;49.976;8.342;2023-11-21T08:02:26;4.60;;;4.13;;
2850;SDS011;1433;49.976;8.342;2023-11-21T08:04:53;4.17;;;3.47;;
2850;SDS011;1433;49.976;8.342;2023-11-21T08:07:19;4.23;;;3.87;;
2850;SDS011;1433;49.976;8.342;2023-11-21T08:09:45;7.23;;;3.80;;
2850;SDS011;1433;49.976;8.342;2023-11-21T08:12:12;4.43;;;3.60;;
2850;SDS011;1433;49.976;8.342;2023-11-21T08:14:38;6.37;;;4.30;;
2850;SDS011;1433;49.976;8.342;2023-11-21T08:17:06;4.37;;;3.97;;
2850;SDS011;1433;49.976;8.342;2023-11-21T08:19:32;4.23;;;3.77;;
2850;SDS011;1433;49.976;8.342;2023-11-21T08:21:58;5.43;;;4.40;;
2850;SDS011;1433;49.976;8.342;2023-11-21T08:24:25;6.80;;;4.83;;
2850;SDS011;1433;49.976;8.342;2023-11-21T08:26:51;6.00;;;4.67;;
2850;SDS011;1433;49.976;8.342;2023-11-21T08:29:17;5.37;;;4.53;;
2850;SDS011;1433;49.976;8.342;2023-11-21T08:31:44;6.30;;;4.80;;
2850;SDS011;1433;49.976;8.342;2023-11-21T08:34:12;8.17;;;5.33;;
2850;SDS011;1433;49.976;8.342;2023-11-21T08:36:43;6.77;;;5.20;;
2850;SDS011;1433;49.976;8.342;2023-11-21T08:39:09;5.13;;;4.53;;
2850;SDS011;1433;49.976;8.342;2023-11-21T08:41:36;14.80;;;7.30;;
2850;SDS011;1433;49.976;8.342;2023-11-21T08:44:02;5.83;;;5.10;;
2850;SDS011;1433;49.976;8.342;2023-11-21T08:46:30;5.13;;;4.17;;
2850;SDS011;1433;49.976;8.342;2023-11-21T08:48:56;6.33;;;5.00;;
2850;SDS011;1433;49.976;8.342;2023-11-21T08:51:22;6.20;;;5.17;;
2850;SDS011;1433;49.976;8.342;2023-11-21T08:53:49;4.60;;;4.07;;
2850;SDS011;1433;49.976;8.342;2023-11-21T08:56:15;4.47;;;4.07;;
2850;SDS011;1433;49.976;8.342;2023-11-21T08:58:41;4.70;;;4.30;;
2850;SDS011;1433;49.976;8.342;2023-11-21T09:01:07;8.00;;;3.90;;
2850;SDS011;1433;49.976;8.342;2023-11-21T09:03:33;4.83;;;3.77;;
2850;SDS011;1433;49.976;8.342;2023-11-21T09:06:00;4.33;;;3.93;;
2850;SDS011;1433;49.976;8.342;2023-11-21T09:08:26;3.90;;;3.53;;
2850;SDS011;1433;49.976;8.342;2023-11-21T09:10:54;8.20;;;4.70;;
2850;SDS011;1433;49.976;8.342;2023-11-21T09:13:21;6.20;;;4.43;;
2850;SDS011;1433;49.976;8.342;2023-11-21T09:15:48;5.90;;;5.40;;
2850;SDS011;1433;49.976;8.342;2023-11-21T09:18:17;6.17;;;4.13;;
2850;SDS011;1433;49.976;8.342;2023-11-21T09:20:44;4.40;;;4.00;;
2850;SDS011;1433;49.976;8.342;2023-11-21T09:23:11;3.90;;;3.23;;
2850;SDS011;1433;49.976;8.342;2023-11-21T09:25:37;3.90;;;3.30;;
2850;SDS011;1433;49.976;8.342;2023-11-21T09:28:04;3.30;;;3.00;;
2850;SDS011;1433;49.976;8.342;2023-11-21T09:30:32;4.87;;;3.60;;
2850;SDS011;1433;49.976;8.342;2023-11-21T09:32:59;5.10;;;3.90;;
2850;SDS011;1433;49.976;8.342;2023-11-21T09:35:34;6.53;;;3.63;;
2850;SDS011;1433;49.976;8.342;2023-11-21T09:38:00;3.97;;;3.67;;
2850;SDS011;1433;49.976;8.342;2023-11-21T09:40:28;4.37;;;2.77;;
2850;SDS011;1433;49.976;8.342;2023-11-21T09:42:56;15.87;;;5.00;;
2850;SDS011;1433;49.976;8.342;2023-11-21T09:47:55;4.23;;;3.30;;
2850;SDS011;1433;49.976;8.342;2023-11-21T09:50:22;5.70;;;4.40;;
2850;SDS011;1433;49.976;8.342;2023-11-21T09:53:02;6.40;;;3.40;;
2850;SDS011;1433;49.976;8.342;2023-11-21T09:55:23;4.07;;;3.67;;
2850;SDS011;1433;49.976;8.342;2023-11-21T09:57:53;7.03;;;4.37;;
2850;SDS011;1433;49.976;8.342;2023-11-21T10:00:20;6.87;;;3.47;;
2850;SDS011;1433;49.976;8.342;2023-11-21T10:02:52;4.33;;;3.90;;
2850;SDS011;1433;49.976;8.342;2023-11-21T10:05:19;3.73;;;3.37;;
2850;SDS011;1433;49.976;8.342;2023-11-21T10:07:47;2.80;;;2.60;;
2850;SDS011;1433;49.976;8.342;2023-11-21T10:10:14;7.23;;;2.80;;
2850;SDS011;1433;49.976;8.342;2023-11-21T10:12:43;2.60;;;2.40;;
2850;SDS011;1433;49.976;8.342;2023-11-21T10:15:13;2.67;;;2.43;;
2850;SDS011;1433;49.976;8.342;2023-11-21T10:17:42;4.20;;;3.60;;
2850;SDS011;1433;49.976;8.342;2023-11-21T10:20:11;4.30;;;2.90;;
2850;SDS011;1433;49.976;8.342;2023-11-21T10:22:42;3.70;;;2.80;;
2850;SDS011;1433;49.976;8.342;2023-11-21T10:25:09;4.43;;;3.30;;
2850;SDS011;1433;49.976;8.342;2023-11-21T10:27:36;3.50;;;2.40;;
2850;SDS011;1433;49.976;8.342;2023-11-21T10:30:05;3.70;;;2.43;;
2850;SDS011;1433;49.976;8.342;2023-11-21T10:32:33;4.10;;;2.87;;
2850;SDS011;1433;49.976;8.342;2023-11-21T10:35:00;3.67;;;2.40;;
2850;SDS011;1433;49.976;8.342;2023-11-21T10:37:27;4.20;;;3.17;;
2850;SDS011;1433;49.976;8.342;2023-11-21T10:39:57;4.17;;;3.30;;
2850;SDS011;1433;49.976;8.342;2023-11-21T10:42:24;3.10;;;2.80;;
2850;SDS011;1433;49.976;8.342;2023-11-21T10:44:50;2.80;;;2.60;;
2850;SDS011;1433;49.976;8.342;2023-11-21T10:47:17;5.30;;;2.70;;
2850;SDS011;1433;49.976;8.342;2023-11-21T10:49:45;4.07;;;2.53;;
2850;SDS011;1433;49.976;8.342;2023-11-21T10:52:13;3.07;;;2.53;;
2850;SDS011;1433;49.976;8.342;2023-11-21T10:54:43;3.60;;;3.30;;
2850;SDS011;1433;49.976;8.342;2023-11-21T10:57:10;2.90;;;2.67;;
2850;SDS011;1433;49.976;8.342;2023-11-21T10:59:39;6.87;;;3.33;;
2850;SDS011;1433;49.976;8.342;2023-11-21T11:02:27;2.80;;;2.47;;
2850;SDS011;1433;49.976;8.342;2023-11-21T11:04:39;4.00;;;3.10;;
2850;SDS011;1433;49.976;8.342;2023-11-21T11:07:07;7.10;;;2.83;;
2850;SDS011;1433;49.976;8.342;2023-11-21T11:09:37;6.93;;;2.63;;
2850;SDS011;1433;49.976;8.342;2023-11-21T11:12:04;5.53;;;3.53;;
2850;SDS011;1433;49.976;8.342;2023-11-21T11:14:32;4.67;;;3.00;;
2850;SDS011;1433;49.976;8.342;2023-11-21T11:16:59;4.40;;;2.73;;
2850;SDS011;1433;49.976;8.342;2023-11-21T11:19:27;8.63;;;2.40;;
2850;SDS011;1433;49.976;8.342;2023-11-21T11:27:54;7.50;;;4.10;;
2850;SDS011;1433;49.976;8.342;2023-11-21T11:33:25;6.70;;;2.50;;
2850;SDS011;1433;49.976;8.342;2023-11-21T11:35:56;4.60;;;3.03;;
2850;SDS011;1433;49.976;8.342;2023-11-21T11:38:26;2.43;;;2.23;;
2850;SDS011;1433;49.976;8.342;2023-11-21T11:40:55;2.67;;;2.40;;
2850;SDS011;1433;49.976;8.342;2023-11-21T11:43:26;6.90;;;3.07;;
2850;SDS011;1433;49.976;8.342;2023-11-21T11:45:57;10.50;;;3.60;;
2850;SDS011;1433;49.976;8.342;2023-11-21T11:48:28;5.20;;;4.07;;
2850;SDS011;1433;49.976;8.342;2023-11-21T11:51:02;3.10;;;2.80;;
2850;SDS011;1433;49.976;8.342;2023-11-21T11:53:35;4.50;;;2.70;;
2850;SDS011;1433;49.976;8.342;2023-11-21T11:58:56;2.60;;;1.93;;
2850;SDS011;1433;49.976;8.342;2023-11-21T12:01:25;3.33;;;2.80;;
2850;SDS011;1433;49.976;8.342;2023-11-21T12:07:05;5.03;;;2.53;;
2850;SDS011;1433;49.976;8.342;2023-11-21T12:09:31;2.20;;;1.83;;
2850;SDS011;1433;49.976;8.342;2023-11-21T12:11:58;3.90;;;2.97;;
2850;SDS011;1433;49.976;8.342;2023-11-21T12:14:25;3.80;;;2.47;;
2850;SDS011;1433;49.976;8.342;2023-11-21T12:16:52;5.70;;;2.60;;
2850;SDS011;1433;49.976;8.342;2023-11-21T12:19:18;3.60;;;2.97;;
2850;SDS011;1433;49.976;8.342;2023-11-21T12:21:46;2.83;;;2.63;;
2850;SDS011;1433;49.976;8.342;2023-11-21T12:24:14;3.00;;;2.43;;
2850;SDS011;1433;49.976;8.342;2023-11-21T12:26:42;2.57;;;2.37;;
2850;SDS011;1433;49.976;8.342;2023-11-21T12:29:09;2.20;;;2.00;;
2850;SDS011;1433;49.976;8.342;2023-11-21T12:31:36;2.63;;;2.17;;
2850;SDS011;1433;49.976;8.342;2023-11-21T12:34:02;4.87;;;3.47;;
2850;SDS011;1433;49.976;8.342;2023-11-21T12:36:30;5.23;;;3.10;;
2850;SDS011;1433;49.976;8.342;2023-11-21T12:38:56;3.90;;;2.23;;
2850;SDS011;1433;49.976;8.342;2023-11-21T12:41:22;2.40;;;2.20;;
2850;SDS011;1433;49.976;8.342;2023-11-21T12:43:48;3.43;;;2.47;;
2850;SDS011;1433;49.976;8.342;2023-11-21T12:46:15;3.33;;;2.60;;
2850;SDS011;1433;49.976;8.342;2023-11-21T12:48:43;4.07;;;2.87;;
2850;SDS011;1433;49.976;8.342;2023-11-21T12:51:11;4.47;;;3.90;;
2850;SDS011;1433;49.976;8.342;2023-11-21T12:53:40;3.60;;;2.97;;
2850;SDS011;1433;49.976;8.342;2023-11-21T12:56:11;2.53;;;2.37;;
2850;SDS011;1433;49.976;8.342;2023-11-21T12:58:38;3.00;;;2.40;;
2850;SDS011;1433;49.976;8.342;2023-11-21T13:01:06;2.87;;;2.53;;
2850;SDS011;1433;49.976;8.342;2023-11-21T13:03:34;3.13;;;2.93;;
2850;SDS011;1433;49.976;8.342;2023-11-21T13:06:02;4.03;;;2.97;;
2850;SDS011;1433;49.976;8.342;2023-11-21T13:08:28;3.20;;;2.63;;
2850;SDS011;1433;49.976;8.342;2023-11-21T13:10:56;4.00;;;3.00;;
2850;SDS011;1433;49.976;8.342;2023-11-21T13:13:23;3.07;;;2.87;;
2850;SDS011;1433;49.976;8.342;2023-11-21T13:15:54;3.53;;;3.20;;
2850;SDS011;1433;49.976;8.342;2023-11-21T13:18:23;2.43;;;2.17;;
2850;SDS011;1433;49.976;8.342;2023-11-21T13:20:50;5.50;;;4.00;;
2850;SDS011;1433;49.976;8.342;2023-11-21T13:23:16;4.77;;;3.40;;
2850;SDS011;1433;49.976;8.342;2023-11-21T13:25:42;3.20;;;3.00;;
2850;SDS011;1433;49.976;8.342;2023-11-21T13:28:11;6.50;;;4.30;;
2850;SDS011;1433;49.976;8.342;2023-11-21T13:30:38;4.10;;;3.80;;
2850;SDS011;1433;49.976;8.342;2023-11-21T13:33:06;7.23;;;3.17;;
2850;SDS011;1433;49.976;8.342;2023-11-21T13:35:34;4.23;;;2.97;;
2850;SDS011;1433;49.976;8.342;2023-11-21T13:38:04;4.13;;;3.00;;
2850;SDS011;1433;49.976;8.342;2023-11-21T13:40:32;4.90;;;3.33;;
2850;SDS011;1433;49.976;8.342;2023-11-21T13:43:01;7.60;;;4.70;;
2850;SDS011;1433;49.976;8.342;2023-11-21T13:45:29;4.73;;;3.30;;
2850;SDS011;1433;49.976;8.342;2023-11-21T13:47:56;4.43;;;3.63;;
2850;SDS011;1433;49.976;8.342;2023-11-21T13:50:24;4.60;;;3.60;;
2850;SDS011;1433;49.976;8.342;2023-11-21T13:52:53;4.80;;;3.70;;
2850;SDS011;1433;49.976;8.342;2023-11-21T13:55:19;5.80;;;5.30;;
2850;SDS011;1433;49.976;8.342;2023-11-21T13:57:48;4.13;;;3.77;;
2850;SDS011;1433;49.976;8.342;2023-11-21T14:00:16;6.73;;;4.20;;
2850;SDS011;1433;49.976;8.342;2023-11-21T14:02:50;4.90;;;3.87;;
2850;SDS011;1433;49.976;8.342;2023-11-21T14:05:17;5.10;;;4.20;;
2850;SDS011;1433;49.976;8.342;2023-11-21T14:07:45;6.47;;;4.00;;
2850;SDS011;1433;49.976;8.342;2023-11-21T14:10:13;4.50;;;4.10;;
2850;SDS011;1433;49.976;8.342;2023-11-21T14:12:40;5.23;;;4.07;;
2850;SDS011;1433;49.976;8.342;2023-11-21T14:15:08;8.93;;;5.10;;
2850;SDS011;1433;49.976;8.342;2023-11-21T14:17:36;6.30;;;4.00;;
2850;SDS011;1433;49.976;8.342;2023-11-21T14:20:04;5.67;;;4.57;;
2850;SDS011;1433;49.976;8.342;2023-11-21T14:22:31;5.53;;;4.63;;
2850;SDS011;1433;49.976;8.342;2023-11-21T14:24:57;5.33;;;4.93;;
2850;SDS011;1433;49.976;8.342;2023-11-21T14:27:25;4.43;;;4.00;;
2850;SDS011;1433;49.976;8.342;2023-11-21T14:29:52;4.50;;;4.20;;
2850;SDS011;1433;49.976;8.342;2023-11-21T14:32:18;6.73;;;4.10;;
2850;SDS011;1433;49.976;8.342;2023-11-21T14:34:44;8.23;;;4.60;;
2850;SDS011;1433;49.976;8.342;2023-11-21T14:37:13;6.63;;;4.40;;
2850;SDS011;1433;49.976;8.342;2023-11-21T14:39:39;3.73;;;3.20;;
2850;SDS011;1433;49.976;8.342;2023-11-21T14:42:07;5.20;;;4.07;;
2850;SDS011;1433;49.976;8.342;2023-11-21T14:44:33;4.97;;;4.00;;
2850;SDS011;1433;49.976;8.342;2023-11-21T14:47:01;4.50;;;4.00;;
2850;SDS011;1433;49.976;8.342;2023-11-21T14:49:30;4.93;;;3.70;;
2850;SDS011;1433;49.976;8.342;2023-11-21T14:51:58;4.90;;;3.70;;
2850;SDS011;1433;49.976;8.342;2023-11-21T14:54:29;4.87;;;4.47;;
2850;SDS011;1433;49.976;8.342;2023-11-21T14:57:12;5.93;;;3.50;;
2850;SDS011;1433;49.976;8.342;2023-11-21T14:59:45;3.60;;;3.30;;
2850;SDS011;1433;49.976;8.342;2023-11-21T15:02:18;10.33;;;4.10;;
2850;SDS011;1433;49.976;8.342;2023-11-21T15:04:49;4.77;;;4.30;;
2850;SDS011;1433;49.976;8.342;2023-11-21T15:07:17;5.80;;;3.60;;
2850;SDS011;1433;49.976;8.342;2023-11-21T15:09:43;5.57;;;4.20;;
2850;SDS011;1433;49.976;8.342;2023-11-21T15:12:11;3.63;;;3.33;;
2850;SDS011;1433;49.976;8.342;2023-11-21T15:14:41;4.90;;;3.80;;
2850;SDS011;1433;49.976;8.342;2023-11-21T15:17:12;4.40;;;4.00;;
2850;SDS011;1433;49.976;8.342;2023-11-21T15:19:43;4.50;;;3.43;;
2850;SDS011;1433;49.976;8.342;2023-11-21T15:22:09;6.07;;;3.97;;
2850;SDS011;1433;49.976;8.342;2023-11-21T15:24:37;4.57;;;4.07;;
2850;SDS011;1433;49.976;8.342;2023-11-21T15:27:04;4.90;;;4.30;;
2850;SDS011;1433;49.976;8.342;2023-11-21T15:29:30;5.10;;;3.47;;
2850;SDS011;1433;49.976;8.342;2023-11-21T15:31:57;4.67;;;4.20;;